sensor_id;sensor_type;location;lat;lon;timestamp;temperature;humidity
8114;DHT22;4099;52.684;9.918;2024-02-21T00:03:06;7.80;99.90
8114;DHT22;4099;52.684;9.918;2024-02-21T00:08:08;7.80;99.90
8114;DHT22;4099;52.684;9.918;2024-02-21T00:13:10;7.90;99.90
8114;DHT22;4099;52.684;9.918;2024-02-21T00:18:16;7.90;99.90
8114;DHT22;4099;52.684;9.918;2024-02-21T00:23:18;7.90;99.90
8114;DHT22;4099;52.684;9.918;2024-02-21T00:28:20;7.90;99.90
8114;DHT22;4099;52.684;9.918;2024-02-21T00:33:26;7.90;99.90
8114;DHT22;4099;52.684;9.918;2024-02-21T00:38:29;7.90;99.90
8114;DHT22;4099;52.684;9.918;2024-02-21T00:43:34;7.90;99.90
8114;DHT22;4099;52.684;9.918;2024-02-21T00:48:37;7.90;99.90
8114;DHT22;4099;52.684;9.918;2024-02-21T00:53:39;8.00;99.90
8114;DHT22;4099;52.684;9.918;2024-02-21T00:58:40;8.00;99.90
8114;DHT22;4099;52.684;9.918;2024-02-21T01:03:44;8.00;99.90
8114;DHT22;4099;52.684;9.918;2024-02-21T01:08:48;8.00;99.90
8114;DHT22;4099;52.684;9.918;2024-02-21T01:13:53;8.10;99.90
8114;DHT22;4099;52.684;9.918;2024-02-21T01:19:01;8.10;99.90
8114;DHT22;4099;52.684;9.918;2024-02-21T01:24:03;8.10;99.90
8114;DHT22;4099;52.684;9.918;2024-02-21T01:29:05;8.10;99.90
8114;DHT22;4099;52.684;9.918;2024-02-21T01:34:14;8.10;99.90
8114;DHT22;4099;52.684;9.918;2024-02-21T01:39:16;8.10;99.90
8114;DHT22;4099;52.684;9.918;2024-02-21T01:44:18;8.10;99.90
8114;DHT22;4099;52.684;9.918;2024-02-21T01:49:21;8.10;99.90
8114;DHT22;4099;52.684;9.918;2024-02-21T01:54:31;8.10;99.90
8114;DHT22;4099;52.684;9.918;2024-02-21T01:59:34;8.10;99.90
8114;DHT22;4099;52.684;9.918;2024-02-21T02:04:41;8.20;99.90
8114;DHT22;4099;52.684;9.918;2024-02-21T02:09:44;8.20;99.90
8114;DHT22;4099;52.684;9.918;2024-02-21T02:14:58;8.20;99.90
8114;DHT22;4099;52.684;9.918;2024-02-21T02:20:03;8.20;99.90
8114;DHT22;4099;52.684;9.918;2024-02-21T02:25:07;8.20;99.90
8114;DHT22;4099;52.684;9.918;2024-02-21T02:30:11;8.20;99.90
8114;DHT22;4099;52.684;9.918;2024-02-21T02:35:13;8.20;99.90
8114;DHT22;4099;52.684;9.918;2024-02-21T02:40:16;8.10;99.90
8114;DHT22;4099;52.684;9.918;2024-02-21T02:45:18;8.30;99.90
8114;DHT22;4099;52.684;9.918;2024-02-21T02:50:23;8.30;99.90
8114;DHT22;4099;52.684;9.918;2024-02-21T02:55:27;8.30;99.90
8114;DHT22;4099;52.684;9.918;2024-02-21T03:00:31;8.30;99.90
8114;DHT22;4099;52.684;9.918;2024-02-21T03:05:39;8.30;99.90
8114;DHT22;4099;52.684;9.918;2024-02-21T03:10:45;8.30;99.90
8114;DHT22;4099;52.684;9.918;2024-02-21T03:15:49;8.40;99.90
8114;DHT22;4099;52.684;9.918;2024-02-21T03:20:52;8.40;99.90
8114;DHT22;4099;52.684;9.918;2024-02-21T03:25:56;8.40;99.90
8114;DHT22;4099;52.684;9.918;2024-02-21T03:30:57;8.40;99.90
8114;DHT22;4099;52.684;9.918;2024-02-21T03:35:59;8.40;99.90
8114;DHT22;4099;52.684;9.918;2024-02-21T03:41:02;8.40;99.90
8114;DHT22;4099;52.684;9.918;2024-02-21T03:46:04;8.50;99.90
8114;DHT22;4099;52.684;9.918;2024-02-21T03:51:06;8.60;99.90
8114;DHT22;4099;52.684;9.918;2024-02-21T03:56:17;8.50;99.90
8114;DHT22;4099;52.684;9.918;2024-02-21T04:01:19;8.40;99.90
8114;DHT22;4099;52.684;9.918;2024-02-21T04:06:21;8.40;99.90
8114;DHT22;4099;52.684;9.918;2024-02-21T04:11:24;8.50;99.90
8114;DHT22;4099;52.684;9.918;2024-02-21T04:16:26;8.50;99.90
8114;DHT22;4099;52.684;9.918;2024-02-21T04:21:27;8.50;99.90
8114;DHT22;4099;52.684;9.918;2024-02-21T04:26:33;8.50;99.90
8114;DHT22;4099;52.684;9.918;2024-02-21T04:31:35;8.40;99.90
8114;DHT22;4099;52.684;9.918;2024-02-21T04:36:37;8.50;99.90
8114;DHT22;4099;52.684;9.918;2024-02-21T04:41:40;8.50;99.90
8114;DHT22;4099;52.684;9.918;2024-02-21T04:46:42;8.60;99.90
8114;DHT22;4099;52.684;9.918;2024-02-21T04:51:44;8.60;99.90
8114;DHT22;4099;52.684;9.918;2024-02-21T04:56:55;8.60;99.90
8114;DHT22;4099;52.684;9.918;2024-02-21T05:01:57;8.60;99.90
8114;DHT22;4099;52.684;9.918;2024-02-21T05:07:02;8.50;99.90
8114;DHT22;4099;52.684;9.918;2024-02-21T05:12:06;8.40;99.90
8114;DHT22;4099;52.684;9.918;2024-02-21T05:17:11;8.30;99.90
8114;DHT22;4099;52.684;9.918;2024-02-21T05:22:13;8.20;99.90
8114;DHT22;4099;52.684;9.918;2024-02-21T05:27:16;8.10;99.90
8114;DHT22;4099;52.684;9.918;2024-02-21T05:32:18;8.10;99.90
8114;DHT22;4099;52.684;9.918;2024-02-21T05:37:19;8.10;99.90
8114;DHT22;4099;52.684;9.918;2024-02-21T05:42:25;8.20;99.90
8114;DHT22;4099;52.684;9.918;2024-02-21T05:47:27;8.20;99.90
8114;DHT22;4099;52.684;9.918;2024-02-21T05:52:32;8.20;99.90
8114;DHT22;4099;52.684;9.918;2024-02-21T05:57:38;8.10;99.90
8114;DHT22;4099;52.684;9.918;2024-02-21T06:02:40;8.10;99.90
8114;DHT22;4099;52.684;9.918;2024-02-21T06:07:41;8.10;99.90
8114;DHT22;4099;52.684;9.918;2024-02-21T06:12:45;8.00;99.90
8114;DHT22;4099;52.684;9.918;2024-02-21T06:17:46;8.00;99.90
8114;DHT22;4099;52.684;9.918;2024-02-21T06:22:51;7.90;99.90
8114;DHT22;4099;52.684;9.918;2024-02-21T06:27:59;7.90;99.90
8114;DHT22;4099;52.684;9.918;2024-02-21T06:33:00;7.90;99.90
8114;DHT22;4099;52.684;9.918;2024-02-21T06:38:03;7.80;99.90
8114;DHT22;4099;52.684;9.918;2024-02-21T06:43:09;7.80;99.90
8114;DHT22;4099;52.684;9.918;2024-02-21T06:48:13;7.80;99.90
8114;DHT22;4099;52.684;9.918;2024-02-21T06:53:16;7.90;99.90
8114;DHT22;4099;52.684;9.918;2024-02-21T06:58:19;7.90;99.90
8114;DHT22;4099;52.684;9.918;2024-02-21T07:03:24;8.00;99.90
8114;DHT22;4099;52.684;9.918;2024-02-21T07:08:28;8.00;99.90
8114;DHT22;4099;52.684;9.918;2024-02-21T07:13:32;8.00;99.90
8114;DHT22;4099;52.684;9.918;2024-02-21T07:18:35;8.10;99.90
8114;DHT22;4099;52.684;9.918;2024-02-21T07:23:40;8.10;99.90
8114;DHT22;4099;52.684;9.918;2024-02-21T07:28:43;8.10;99.90
8114;DHT22;4099;52.684;9.918;2024-02-21T07:33:45;8.10;99.90
8114;DHT22;4099;52.684;9.918;2024-02-21T07:38:49;8.20;99.90
8114;DHT22;4099;52.684;9.918;2024-02-21T07:43:52;8.20;99.90
8114;DHT22;4099;52.684;9.918;2024-02-21T07:48:54;8.20;99.90
8114;DHT22;4099;52.684;9.918;2024-02-21T07:53:59;8.20;99.90
8114;DHT22;4099;52.684;9.918;2024-02-21T07:59:06;8.20;99.90
8114;DHT22;4099;52.684;9.918;2024-02-21T08:04:08;8.20;99.90
8114;DHT22;4099;52.684;9.918;2024-02-21T08:09:10;8.20;99.90
8114;DHT22;4099;52.684;9.918;2024-02-21T08:14:16;8.20;99.90
8114;DHT22;4099;52.684;9.918;2024-02-21T08:19:18;8.20;99.90
8114;DHT22;4099;52.684;9.918;2024-02-21T08:24:21;8.30;99.90
8114;DHT22;4099;52.684;9.918;2024-02-21T08:29:27;8.40;99.90
8114;DHT22;4099;52.684;9.918;2024-02-21T08:34:29;8.50;99.90
8114;DHT22;4099;52.684;9.918;2024-02-21T08:39:37;8.50;99.90
8114;DHT22;4099;52.684;9.918;2024-02-21T08:44:41;8.60;99.90
8114;DHT22;4099;52.684;9.918;2024-02-21T08:49:43;8.70;99.90
8114;DHT22;4099;52.684;9.918;2024-02-21T08:54:49;8.80;99.90
8114;DHT22;4099;52.684;9.918;2024-02-21T08:59:55;8.90;99.90
8114;DHT22;4099;52.684;9.918;2024-02-21T09:04:57;8.90;99.90
8114;DHT22;4099;52.684;9.918;2024-02-21T09:10:01;9.00;99.90
8114;DHT22;4099;52.684;9.918;2024-02-21T09:15:09;9.10;99.90
8114;DHT22;4099;52.684;9.918;2024-02-21T09:20:14;9.20;99.90
8114;DHT22;4099;52.684;9.918;2024-02-21T09:25:16;9.20;99.90
8114;DHT22;4099;52.684;9.918;2024-02-21T09:30:22;9.30;99.90
8114;DHT22;4099;52.684;9.918;2024-02-21T09:35:24;9.30;99.90
8114;DHT22;4099;52.684;9.918;2024-02-21T09:40:27;9.30;99.90
8114;DHT22;4099;52.684;9.918;2024-02-21T09:45:34;9.30;99.90
8114;DHT22;4099;52.684;9.918;2024-02-21T09:50:39;9.40;99.90
8114;DHT22;4099;52.684;9.918;2024-02-21T09:55:44;9.40;99.90
8114;DHT22;4099;52.684;9.918;2024-02-21T10:00:53;9.50;99.90
8114;DHT22;4099;52.684;9.918;2024-02-21T10:05:58;9.60;99.90
8114;DHT22;4099;52.684;9.918;2024-02-21T10:11:01;9.70;99.90
8114;DHT22;4099;52.684;9.918;2024-02-21T10:16:07;9.80;99.90
8114;DHT22;4099;52.684;9.918;2024-02-21T10:21:09;9.80;99.90
8114;DHT22;4099;52.684;9.918;2024-02-21T10:26:10;9.80;99.90
8114;DHT22;4099;52.684;9.918;2024-02-21T10:31:23;9.90;99.90
8114;DHT22;4099;52.684;9.918;2024-02-21T10:36:25;9.90;99.90
8114;DHT22;4099;52.684;9.918;2024-02-21T10:41:28;9.90;99.90
8114;DHT22;4099;52.684;9.918;2024-02-21T10:46:34;10.00;99.90
8114;DHT22;4099;52.684;9.918;2024-02-21T10:51:41;10.10;99.90
8114;DHT22;4099;52.684;9.918;2024-02-21T10:56:45;10.30;99.90
8114;DHT22;4099;52.684;9.918;2024-02-21T11:01:48;10.50;99.90
8114;DHT22;4099;52.684;9.918;2024-02-21T11:06:56;10.60;99.90
8114;DHT22;4099;52.684;9.918;2024-02-21T11:11:58;10.80;99.90
8114;DHT22;4099;52.684;9.918;2024-02-21T11:17:03;10.90;99.90
8114;DHT22;4099;52.684;9.918;2024-02-21T11:22:19;11.10;99.90
8114;DHT22;4099;52.684;9.918;2024-02-21T11:27:23;10.80;99.90
8114;DHT22;4099;52.684;9.918;2024-02-21T11:32:27;10.80;99.90
8114;DHT22;4099;52.684;9.918;2024-02-21T11:37:32;10.80;99.90
8114;DHT22;4099;52.684;9.918;2024-02-21T11:42:34;10.70;99.90
8114;DHT22;4099;52.684;9.918;2024-02-21T11:47:38;10.60;99.90
8114;DHT22;4099;52.684;9.918;2024-02-21T11:52:44;10.80;99.90
8114;DHT22;4099;52.684;9.918;2024-02-21T11:57:47;10.70;99.90
8114;DHT22;4099;52.684;9.918;2024-02-21T12:02:51;10.60;99.90
8114;DHT22;4099;52.684;9.918;2024-02-21T12:07:58;10.70;99.90
8114;DHT22;4099;52.684;9.918;2024-02-21T12:13:06;10.70;99.90
8114;DHT22;4099;52.684;9.918;2024-02-21T12:18:11;10.70;99.90
8114;DHT22;4099;52.684;9.918;2024-02-21T12:23:13;10.70;99.90
8114;DHT22;4099;52.684;9.918;2024-02-21T12:28:15;10.70;99.90
8114;DHT22;4099;52.684;9.918;2024-02-21T12:33:19;10.80;99.90
8114;DHT22;4099;52.684;9.918;2024-02-21T12:38:24;10.80;99.90
8114;DHT22;4099;52.684;9.918;2024-02-21T12:43:26;10.90;99.90
8114;DHT22;4099;52.684;9.918;2024-02-21T12:48:29;10.90;99.90
8114;DHT22;4099;52.684;9.918;2024-02-21T12:53:31;10.90;99.90
8114;DHT22;4099;52.684;9.918;2024-02-21T12:58:34;10.90;99.90
8114;DHT22;4099;52.684;9.918;2024-02-21T13:03:40;11.20;99.90
8114;DHT22;4099;52.684;9.918;2024-02-21T13:08:43;11.20;99.90
8114;DHT22;4099;52.684;9.918;2024-02-21T13:13:45;11.10;99.90
8114;DHT22;4099;52.684;9.918;2024-02-21T13:18:48;11.10;99.90
8114;DHT22;4099;52.684;9.918;2024-02-21T13:23:50;11.10;99.90
8114;DHT22;4099;52.684;9.918;2024-02-21T13:28:52;11.30;99.90
8114;DHT22;4099;52.684;9.918;2024-02-21T13:33:55;11.50;99.90
8114;DHT22;4099;52.684;9.918;2024-02-21T13:38:57;11.60;99.90
8114;DHT22;4099;52.684;9.918;2024-02-21T13:43:59;11.40;99.90
8114;DHT22;4099;52.684;9.918;2024-02-21T13:49:05;11.30;99.90
8114;DHT22;4099;52.684;9.918;2024-02-21T13:54:07;11.20;99.90
8114;DHT22;4099;52.684;9.918;2024-02-21T13:59:11;11.40;99.90
8114;DHT22;4099;52.684;9.918;2024-02-21T14:04:16;11.60;99.90
8114;DHT22;4099;52.684;9.918;2024-02-21T14:09:19;11.40;99.90
8114;DHT22;4099;52.684;9.918;2024-02-21T14:14:21;11.40;99.90
8114;DHT22;4099;52.684;9.918;2024-02-21T14:19:27;11.40;99.90
8114;DHT22;4099;52.684;9.918;2024-02-21T14:24:28;11.30;99.90
8114;DHT22;4099;52.684;9.918;2024-02-21T14:29:30;11.30;99.90
8114;DHT22;4099;52.684;9.918;2024-02-21T14:34:36;11.30;99.90
8114;DHT22;4099;52.684;9.918;2024-02-21T14:39:41;11.20;99.90
8114;DHT22;4099;52.684;9.918;2024-02-21T14:44:43;11.20;99.90
8114;DHT22;4099;52.684;9.918;2024-02-21T14:49:46;11.20;99.90
8114;DHT22;4099;52.684;9.918;2024-02-21T14:54:57;11.40;99.90
8114;DHT22;4099;52.684;9.918;2024-02-21T14:59:59;11.40;99.90
8114;DHT22;4099;52.684;9.918;2024-02-21T15:05:09;11.30;99.90
8114;DHT22;4099;52.684;9.918;2024-02-21T15:10:13;11.30;99.90
8114;DHT22;4099;52.684;9.918;2024-02-21T15:15:15;11.30;99.90
8114;DHT22;4099;52.684;9.918;2024-02-21T15:20:20;11.20;99.90
8114;DHT22;4099;52.684;9.918;2024-02-21T15:25:21;11.20;99.90
8114;DHT22;4099;52.684;9.918;2024-02-21T15:30:23;11.10;99.90
8114;DHT22;4099;52.684;9.918;2024-02-21T15:35:27;11.00;99.90
8114;DHT22;4099;52.684;9.918;2024-02-21T15:40:29;11.00;99.90
8114;DHT22;4099;52.684;9.918;2024-02-21T15:45:31;10.90;99.90
8114;DHT22;4099;52.684;9.918;2024-02-21T15:50:37;10.80;99.90
8114;DHT22;4099;52.684;9.918;2024-02-21T15:55:39;10.70;99.90
8114;DHT22;4099;52.684;9.918;2024-02-21T16:00:41;10.50;99.90
8114;DHT22;4099;52.684;9.918;2024-02-21T16:05:47;10.40;99.90
8114;DHT22;4099;52.684;9.918;2024-02-21T16:10:49;10.20;99.90
8114;DHT22;4099;52.684;9.918;2024-02-21T16:15:52;10.10;99.90
8114;DHT22;4099;52.684;9.918;2024-02-21T16:20:55;10.00;99.90
8114;DHT22;4099;52.684;9.918;2024-02-21T16:25:57;9.90;99.90
8114;DHT22;4099;52.684;9.918;2024-02-21T16:31:01;9.70;99.90
8114;DHT22;4099;52.684;9.918;2024-02-21T16:36:04;9.60;99.90
8114;DHT22;4099;52.684;9.918;2024-02-21T16:41:07;9.50;99.90
8114;DHT22;4099;52.684;9.918;2024-02-21T16:46:10;9.40;99.90
8114;DHT22;4099;52.684;9.918;2024-02-21T16:51:16;9.40;99.90
8114;DHT22;4099;52.684;9.918;2024-02-21T16:56:18;9.30;99.90
8114;DHT22;4099;52.684;9.918;2024-02-21T17:01:22;9.30;99.90
8114;DHT22;4099;52.684;9.918;2024-02-21T17:06:25;9.20;99.90
8114;DHT22;4099;52.684;9.918;2024-02-21T17:11:27;9.20;99.90
8114;DHT22;4099;52.684;9.918;2024-02-21T17:16:29;9.20;99.90
8114;DHT22;4099;52.684;9.918;2024-02-21T17:21:37;9.20;99.90
8114;DHT22;4099;52.684;9.918;2024-02-21T17:26:39;9.20;99.90
8114;DHT22;4099;52.684;9.918;2024-02-21T17:31:41;9.10;99.90
8114;DHT22;4099;52.684;9.918;2024-02-21T17:36:47;9.10;99.90
8114;DHT22;4099;52.684;9.918;2024-02-21T17:41:49;9.10;99.90
8114;DHT22;4099;52.684;9.918;2024-02-21T17:46:56;9.00;99.90
8114;DHT22;4099;52.684;9.918;2024-02-21T17:51:59;9.00;99.90
8114;DHT22;4099;52.684;9.918;2024-02-21T17:57:01;9.00;99.90
8114;DHT22;4099;52.684;9.918;2024-02-21T18:02:07;8.90;99.90
8114;DHT22;4099;52.684;9.918;2024-02-21T18:07:10;8.90;99.90
8114;DHT22;4099;52.684;9.918;2024-02-21T18:12:12;8.90;99.90
8114;DHT22;4099;52.684;9.918;2024-02-21T18:17:14;8.90;99.90
8114;DHT22;4099;52.684;9.918;2024-02-21T18:22:20;8.90;99.90
8114;DHT22;4099;52.684;9.918;2024-02-21T18:27:21;8.80;99.90
8114;DHT22;4099;52.684;9.918;2024-02-21T18:32:23;8.80;99.90
8114;DHT22;4099;52.684;9.918;2024-02-21T18:37:29;8.80;99.90
8114;DHT22;4099;52.684;9.918;2024-02-21T18:42:32;8.80;99.90
8114;DHT22;4099;52.684;9.918;2024-02-21T18:47:34;8.80;99.90
8114;DHT22;4099;52.684;9.918;2024-02-21T18:52:38;8.90;99.90
8114;DHT22;4099;52.684;9.918;2024-02-21T18:57:39;8.80;99.90
8114;DHT22;4099;52.684;9.918;2024-02-21T19:02:42;8.80;99.90
8114;DHT22;4099;52.684;9.918;2024-02-21T19:07:45;8.80;99.90
8114;DHT22;4099;52.684;9.918;2024-02-21T19:12:47;8.80;99.90
8114;DHT22;4099;52.684;9.918;2024-02-21T19:17:49;8.80;99.90
8114;DHT22;4099;52.684;9.918;2024-02-21T19:22:52;8.80;99.90
8114;DHT22;4099;52.684;9.918;2024-02-21T19:27:56;8.80;99.90
8114;DHT22;4099;52.684;9.918;2024-02-21T19:32:58;8.90;99.90
8114;DHT22;4099;52.684;9.918;2024-02-21T19:38:02;8.80;99.90
8114;DHT22;4099;52.684;9.918;2024-02-21T19:43:07;8.90;99.90
8114;DHT22;4099;52.684;9.918;2024-02-21T19:48:09;9.00;99.90
8114;DHT22;4099;52.684;9.918;2024-02-21T19:53:14;9.10;99.90
8114;DHT22;4099;52.684;9.918;2024-02-21T19:58:16;9.20;99.90
8114;DHT22;4099;52.684;9.918;2024-02-21T20:03:18;9.10;99.90
8114;DHT22;4099;52.684;9.918;2024-02-21T20:08:22;9.10;99.90
8114;DHT22;4099;52.684;9.918;2024-02-21T20:13:27;9.10;99.90
8114;DHT22;4099;52.684;9.918;2024-02-21T20:18:29;8.90;99.90
8114;DHT22;4099;52.684;9.918;2024-02-21T20:23:32;8.80;99.90
8114;DHT22;4099;52.684;9.918;2024-02-21T20:28:35;8.80;99.90
8114;DHT22;4099;52.684;9.918;2024-02-21T20:33:37;8.70;99.90
8114;DHT22;4099;52.684;9.918;2024-02-21T20:38:40;8.50;99.90
8114;DHT22;4099;52.684;9.918;2024-02-21T20:43:44;8.40;99.90
8114;DHT22;4099;52.684;9.918;2024-02-21T20:48:49;8.30;99.90
8114;DHT22;4099;52.684;9.918;2024-02-21T20:53:57;8.30;99.90
8114;DHT22;4099;52.684;9.918;2024-02-21T20:58:59;8.20;99.90
8114;DHT22;4099;52.684;9.918;2024-02-21T21:04:01;8.20;99.90
8114;DHT22;4099;52.684;9.918;2024-02-21T21:09:04;8.20;99.90
8114;DHT22;4099;52.684;9.918;2024-02-21T21:14:12;8.10;99.90
8114;DHT22;4099;52.684;9.918;2024-02-21T21:19:14;8.10;99.90
8114;DHT22;4099;52.684;9.918;2024-02-21T21:24:17;8.10;99.90
8114;DHT22;4099;52.684;9.918;2024-02-21T21:29:19;8.00;99.90
8114;DHT22;4099;52.684;9.918;2024-02-21T21:34:24;8.00;99.90
8114;DHT22;4099;52.684;9.918;2024-02-21T21:39:30;8.00;99.90
8114;DHT22;4099;52.684;9.918;2024-02-21T21:44:32;8.00;99.90
8114;DHT22;4099;52.684;9.918;2024-02-21T21:49:34;8.00;99.90
8114;DHT22;4099;52.684;9.918;2024-02-21T21:54:38;8.00;99.90
8114;DHT22;4099;52.684;9.918;2024-02-21T21:59:40;8.00;99.90
8114;DHT22;4099;52.684;9.918;2024-02-21T22:04:42;8.00;99.90
8114;DHT22;4099;52.684;9.918;2024-02-21T22:09:45;8.00;99.90
8114;DHT22;4099;52.684;9.918;2024-02-21T22:14:47;8.00;99.90
8114;DHT22;4099;52.684;9.918;2024-02-21T22:19:49;8.00;99.90
8114;DHT22;4099;52.684;9.918;2024-02-21T22:24:55;8.00;99.90
8114;DHT22;4099;52.684;9.918;2024-02-21T22:29:57;8.00;99.90
8114;DHT22;4099;52.684;9.918;2024-02-21T22:35:02;7.90;99.90
8114;DHT22;4099;52.684;9.918;2024-02-21T22:40:06;7.90;99.90
8114;DHT22;4099;52.684;9.918;2024-02-21T22:45:09;8.00;99.90
8114;DHT22;4099;52.684;9.918;2024-02-21T22:50:14;8.00;99.90
8114;DHT22;4099;52.684;9.918;2024-02-21T22:55:22;8.00;99.90
8114;DHT22;4099;52.684;9.918;2024-02-21T23:00:27;8.00;99.90
8114;DHT22;4099;52.684;9.918;2024-02-21T23:05:29;8.00;99.90
8114;DHT22;4099;52.684;9.918;2024-02-21T23:10:35;7.90;99.90
8114;DHT22;4099;52.684;9.918;2024-02-21T23:15:36;7.90;99.90
8114;DHT22;4099;52.684;9.918;2024-02-21T23:20:43;7.90;99.90
8114;DHT22;4099;52.684;9.918;2024-02-21T23:25:49;7.90;99.90
8114;DHT22;4099;52.684;9.918;2024-02-21T23:30:53;7.90;99.90
8114;DHT22;4099;52.684;9.918;2024-02-21T23:35:58;7.90;99.90
8114;DHT22;4099;52.684;9.918;2024-02-21T23:41:01;7.90;99.90
8114;DHT22;4099;52.684;9.918;2024-02-21T23:46:06;7.90;99.90
8114;DHT22;4099;52.684;9.918;2024-02-21T23:51:09;7.90;99.90
8114;DHT22;4099;52.684;9.918;2024-02-21T23:56:12;7.90;99.90
